Time;durP1;ratioP1;P1;durP2;ratioP2;P2;SDS_P1;SDS_P2;PMS_P1;PMS_P2;Temp;Humidity;BMP_temperature;BMP_pressure;BME280_temperature;BME280_humidity;BME280_pressure;Samples;Min_cycle;Max_cycle;Signal;HPM_P1;HPM_P2
2023/09/11 03:31:26;;;;;;;7.53;5.93;;;16.40;99.90;;;;;;5844733;22;20490;-66
2023/09/11 03:33:53;;;;;;;6.93;5.63;;;16.40;99.90;;;;;;5020303;28;20850;-66
2023/09/11 03:36:20;;;;;;;5.90;5.27;;;16.40;99.90;;;;;;5013704;28;20470;-66
2023/09/11 03:38:46;;;;;;;6.03;5.50;;;16.40;99.90;;;;;;5020685;28;20947;-66
2023/09/11 03:41:13;;;;;;;6.10;5.50;;;16.40;99.90;;;;;;5011444;28;20479;-66
2023/09/11 03:43:43;;;;;;;7.13;5.20;;;16.30;99.90;;;;;;5011328;28;20450;-66
2023/09/11 03:46:12;;;;;;;5.63;5.13;;;16.30;99.90;;;;;;5011577;28;20461;-66
2023/09/11 03:48:40;;;;;;;6.80;5.53;;;16.30;99.90;;;;;;5011910;28;20488;-67
2023/09/11 03:51:07;;;;;;;6.43;5.37;;;16.30;99.90;;;;;;5011064;28;20492;-66
2023/09/11 03:53:34;;;;;;;6.03;5.50;;;16.30;99.90;;;;;;5010892;28;20480;-66
2023/09/11 03:56:01;;;;;;;6.87;6.03;;;16.20;99.90;;;;;;5010207;28;20473;-67
2023/09/11 03:58:28;;;;;;;6.87;6.17;;;16.30;99.90;;;;;;5011071;28;20463;-66
2023/09/11 04:00:54;;;;;;;5.87;5.30;;;16.30;99.90;;;;;;5011041;28;20494;-66
2023/09/11 04:03:21;;;;;;;6.63;6.00;;;16.30;99.90;;;;;;5010374;28;20888;-69
2023/09/11 04:05:49;;;;;;;7.67;6.90;;;16.20;99.90;;;;;;5010898;28;20474;-67
2023/09/11 04:08:16;;;;;;;6.00;5.40;;;16.20;99.90;;;;;;5010313;28;21008;-66
2023/09/11 04:10:43;;;;;;;6.63;5.90;;;16.20;99.90;;;;;;5011043;28;20492;-67
2023/09/11 04:13:09;;;;;;;7.20;5.97;;;16.20;99.90;;;;;;5010256;28;20471;-66
2023/09/11 04:15:37;;;;;;;6.03;5.43;;;16.20;99.90;;;;;;5010722;28;20840;-68
2023/09/11 04:18:04;;;;;;;5.53;4.90;;;16.20;99.90;;;;;;5010792;28;20463;-66
2023/09/11 04:20:33;;;;;;;6.17;5.50;;;16.20;99.90;;;;;;5010655;28;20463;-69
2023/09/11 04:23:02;;;;;;;7.57;4.93;;;16.10;99.90;;;;;;5008444;28;20911;-66
2023/09/11 04:25:28;;;;;;;6.23;5.30;;;16.10;99.90;;;;;;5010570;28;20461;-69
2023/09/11 04:27:55;;;;;;;6.60;5.10;;;16.10;99.90;;;;;;5010796;28;20470;-70
2023/09/11 04:30:23;;;;;;;6.07;5.23;;;16.10;99.90;;;;;;5010425;28;20472;-69
2023/09/11 04:32:50;;;;;;;5.63;4.93;;;16.10;99.90;;;;;;5009933;28;20480;-67
2023/09/11 04:35:18;;;;;;;6.43;5.60;;;16.10;99.90;;;;;;5010863;28;20463;-67
2023/09/11 04:37:45;;;;;;;7.73;5.87;;;16.10;99.90;;;;;;5009007;28;20474;-69
2023/09/11 04:40:13;;;;;;;11.43;6.80;;;16.00;99.90;;;;;;5010903;28;20461;-67
2023/09/11 04:42:42;;;;;;;7.80;5.63;;;16.00;99.90;;;;;;5010204;28;20461;-70
2023/09/11 04:45:10;;;;;;;6.60;6.00;;;16.00;99.90;;;;;;5010748;28;20460;-69
2023/09/11 04:47:37;;;;;;;5.97;5.47;;;16.00;99.90;;;;;;5010874;28;20466;-69
2023/09/11 04:50:04;;;;;;;7.33;5.73;;;16.00;99.90;;;;;;5010677;28;20483;-69
2023/09/11 04:52:31;;;;;;;5.60;5.10;;;16.00;99.90;;;;;;5010151;28;20489;-69
2023/09/11 04:54:58;;;;;;;6.53;5.03;;;16.00;99.90;;;;;;5010748;28;20469;-69
2023/09/11 04:57:26;;;;;;;6.93;6.23;;;16.00;99.90;;;;;;5010719;28;20464;-69
2023/09/11 04:59:53;;;;;;;5.67;5.10;;;15.90;99.90;;;;;;5010748;28;20461;-68
2023/09/11 05:02:20;;;;;;;7.10;5.77;;;15.90;99.90;;;;;;5005305;28;20507;-69
2023/09/11 05:04:47;;;;;;;6.33;5.60;;;15.90;99.90;;;;;;5010352;28;20474;-69
2023/09/11 05:07:14;;;;;;;8.20;6.30;;;15.90;99.90;;;;;;5010675;28;20465;-68
2023/09/11 05:09:41;;;;;;;9.87;5.80;;;15.90;99.90;;;;;;5009837;28;20488;-67
2023/09/11 05:12:08;;;;;;;5.60;4.80;;;15.90;99.90;;;;;;5008988;28;20495;-68
2023/09/11 05:14:36;;;;;;;6.40;5.60;;;15.90;99.90;;;;;;5010010;28;20588;-68
2023/09/11 05:17:03;;;;;;;5.93;5.10;;;15.90;99.90;;;;;;5010241;28;20460;-68
2023/09/11 05:19:29;;;;;;;5.90;5.10;;;15.90;99.90;;;;;;5014533;28;20513;-69
2023/09/11 05:21:57;;;;;;;8.13;5.17;;;15.90;99.90;;;;;;5013259;28;20484;-68
2023/09/11 05:24:25;;;;;;;6.23;5.60;;;16.00;99.90;;;;;;5013808;28;20566;-68
2023/09/11 05:26:52;;;;;;;6.47;5.10;;;16.00;99.90;;;;;;5014458;28;20483;-69
2023/09/11 05:29:20;;;;;;;5.50;5.00;;;16.00;99.90;;;;;;5013402;28;20491;-68
2023/09/11 05:31:49;;;;;;;5.90;5.30;;;16.00;99.90;;;;;;5013635;28;20496;-69
2023/09/11 05:34:17;;;;;;;6.50;5.40;;;16.00;99.90;;;;;;5013668;28;20497;-68
2023/09/11 05:36:44;;;;;;;6.00;5.40;;;16.00;99.90;;;;;;5014249;28;20468;-68
2023/09/11 05:39:13;;;;;;;7.03;6.30;;;16.10;99.90;;;;;;5013849;28;20467;-68
2023/09/11 05:41:42;;;;;;;6.90;5.00;;;16.10;99.90;;;;;;5013414;28;20484;-68
2023/09/11 05:44:10;;;;;;;6.17;5.57;;;16.10;99.90;;;;;;5013508;28;20844;-68
2023/09/11 05:46:38;;;;;;;5.90;5.30;;;16.10;99.90;;;;;;5005359;28;20544;-68
2023/09/11 05:49:06;;;;;;;8.90;6.00;;;16.20;99.90;;;;;;5013811;28;20861;-68
2023/09/11 05:51:32;;;;;;;6.40;5.80;;;16.20;99.90;;;;;;5012946;28;20993;-68
2023/09/11 05:53:59;;;;;;;5.70;5.10;;;16.20;99.90;;;;;;5011266;28;20476;-68
2023/09/11 05:56:26;;;;;;;7.47;5.33;;;16.30;99.90;;;;;;5013284;28;20955;-68
2023/09/11 05:58:53;;;;;;;5.97;5.47;;;16.30;99.90;;;;;;5013218;28;20471;-68
2023/09/11 06:01:20;;;;;;;9.53;6.30;;;16.30;99.90;;;;;;5012888;28;20484;-68
2023/09/11 06:03:47;;;;;;;6.17;5.57;;;16.40;99.90;;;;;;5011341;28;20818;-69
2023/09/11 06:06:15;;;;;;;7.27;6.40;;;16.40;99.90;;;;;;5010936;28;20475;-68
2023/09/11 06:08:41;;;;;;;6.07;5.47;;;16.50;99.90;;;;;;5012369;28;20559;-69
2023/09/11 06:11:08;;;;;;;6.43;5.23;;;16.50;99.90;;;;;;5012685;28;20489;-68
2023/09/11 06:13:35;;;;;;;12.60;5.57;;;16.60;99.90;;;;;;5012097;28;20468;-68
2023/09/11 06:16:02;;;;;;;8.00;6.17;;;16.60;99.90;;;;;;5011562;28;20514;-68
2023/09/11 06:18:29;;;;;;;7.30;5.90;;;16.70;99.90;;;;;;5011761;28;20858;-68
2023/09/11 06:20:56;;;;;;;6.47;5.87;;;16.80;99.90;;;;;;5012475;28;20480;-69
2023/09/11 06:23:24;;;;;;;7.77;5.83;;;16.80;99.90;;;;;;5012287;28;20464;-68
2023/09/11 06:25:50;;;;;;;6.63;5.77;;;16.90;99.90;;;;;;5012566;28;20457;-68
2023/09/11 06:28:17;;;;;;;6.20;5.60;;;17.00;99.90;;;;;;5012406;28;20805;-68
2023/09/11 06:30:44;;;;;;;7.10;6.40;;;17.10;99.90;;;;;;5011367;28;20493;-68
2023/09/11 06:33:11;;;;;;;6.17;5.17;;;17.20;99.90;;;;;;5011772;28;20844;-68
2023/09/11 06:35:38;;;;;;;6.80;5.80;;;17.30;99.90;;;;;;5012666;28;21078;-68
2023/09/11 06:38:05;;;;;;;6.17;5.57;;;17.30;99.90;;;;;;5012367;28;20953;-68
2023/09/11 06:40:33;;;;;;;6.60;5.90;;;17.50;99.90;;;;;;5012313;28;20454;-68
2023/09/11 06:42:59;;;;;;;10.53;6.67;;;17.60;99.90;;;;;;5011842;28;20958;-68
2023/09/11 06:45:26;;;;;;;9.83;6.47;;;17.70;99.90;;;;;;5012576;28;20465;-69
2023/09/11 06:47:53;;;;;;;7.47;5.87;;;17.80;99.90;;;;;;5011976;28;20461;-68
2023/09/11 06:50:19;;;;;;;6.33;5.77;;;17.90;99.90;;;;;;5012290;28;20489;-68
2023/09/11 06:52:46;;;;;;;6.73;5.53;;;18.10;99.90;;;;;;5011638;28;20483;-68
2023/09/11 06:55:13;;;;;;;7.77;6.97;;;18.20;99.90;;;;;;5012017;28;20461;-69
2023/09/11 06:57:54;;;;;;;7.73;6.53;;;18.40;99.90;;;;;;5012254;28;20472;-69
2023/09/11 07:00:21;;;;;;;6.77;6.07;;;18.50;99.90;;;;;;5007020;28;20463;-69
2023/09/11 07:02:48;;;;;;;7.00;5.97;;;18.70;99.90;;;;;;5011311;28;20462;-68
2023/09/11 07:05:16;;;;;;;10.50;6.43;;;18.80;99.90;;;;;;5012289;28;20481;-69
2023/09/11 07:07:42;;;;;;;6.70;5.77;;;19.00;99.90;;;;;;5012579;28;20465;-69
2023/09/11 07:10:11;;;;;;;6.80;5.73;;;19.20;99.90;;;;;;5012120;28;20477;-68
2023/09/11 07:12:38;;;;;;;6.50;5.80;;;19.30;99.90;;;;;;5011592;28;20856;-68
2023/09/11 07:15:06;;;;;;;7.20;6.50;;;19.40;99.90;;;;;;5012089;28;20463;-69
2023/09/11 07:17:33;;;;;;;7.50;6.07;;;19.60;99.90;;;;;;5012233;28;20984;-69
2023/09/11 07:20:00;;;;;;;6.03;5.17;;;19.70;99.90;;;;;;5003906;28;20458;-68
2023/09/11 07:22:27;;;;;;;7.37;6.00;;;19.90;99.90;;;;;;5011562;28;20487;-69
2023/09/11 07:24:53;;;;;;;7.80;6.50;;;20.00;99.90;;;;;;5011776;28;20463;-69
2023/09/11 07:27:20;;;;;;;7.70;7.00;;;20.10;99.90;;;;;;5012084;28;20467;-69
2023/09/11 07:29:48;;;;;;;8.20;6.50;;;20.30;99.90;;;;;;5011738;28;20487;-68
2023/09/11 07:32:16;;;;;;;6.80;6.10;;;20.40;99.90;;;;;;5011008;28;20487;-68
2023/09/11 07:34:43;;;;;;;6.07;5.47;;;20.60;99.90;;;;;;5011683;28;20463;-68
2023/09/11 07:37:10;;;;;;;6.30;5.50;;;20.70;99.90;;;;;;5011740;28;20474;-69
2023/09/11 07:39:37;;;;;;;7.00;6.03;;;20.90;99.90;;;;;;5011551;28;20457;-69
2023/09/11 07:42:04;;;;;;;5.77;5.20;;;21.10;99.90;;;;;;5010664;28;20484;-69
2023/09/11 07:44:30;;;;;;;7.90;6.77;;;21.20;99.90;;;;;;5011936;28;20468;-69
2023/09/11 07:46:57;;;;;;;5.93;5.33;;;21.40;99.90;;;;;;5011676;28;20473;-68
2023/09/11 07:49:25;;;;;;;6.67;6.03;;;21.50;99.90;;;;;;5011547;28;20491;-69
2023/09/11 07:51:52;;;;;;;7.53;5.47;;;21.70;99.90;;;;;;5010806;28;20488;-69
2023/09/11 07:54:19;;;;;;;9.60;6.73;;;21.90;99.90;;;;;;5011338;28;20822;-69
2023/09/11 07:56:46;;;;;;;9.03;6.50;;;22.10;99.90;;;;;;5011453;28;20461;-68
2023/09/11 07:59:12;;;;;;;9.23;6.07;;;22.20;99.90;;;;;;5011328;28;20460;-69
2023/09/11 08:01:39;;;;;;;7.47;6.70;;;22.40;99.90;;;;;;5010955;28;20485;-68
2023/09/11 08:04:06;;;;;;;7.93;6.90;;;22.50;99.90;;;;;;5011170;28;20469;-68
2023/09/11 08:06:34;;;;;;;8.00;7.00;;;22.60;99.90;;;;;;5011589;28;20549;-69
2023/09/11 08:09:03;;;;;;;8.57;6.67;;;22.80;99.90;;;;;;5010546;28;20461;-69
2023/09/11 08:11:31;;;;;;;7.10;5.97;;;22.90;99.90;;;;;;5011308;28;20488;-69
2023/09/11 08:13:58;;;;;;;7.47;6.70;;;23.10;99.90;;;;;;5010689;28;20984;-69
2023/09/11 08:16:25;;;;;;;7.10;6.37;;;23.30;99.90;;;;;;5011290;28;20472;-68
2023/09/11 08:18:51;;;;;;;5.87;5.30;;;23.30;99.90;;;;;;5011034;28;20852;-69
2023/09/11 08:21:19;;;;;;;5.87;5.37;;;23.50;99.90;;;;;;5010997;28;20674;-69
2023/09/11 08:23:47;;;;;;;7.83;6.47;;;23.60;99.90;;;;;;5010498;28;20464;-69
2023/09/11 08:26:14;;;;;;;8.20;6.40;;;23.80;99.90;;;;;;5011313;28;20465;-69
2023/09/11 08:28:40;;;;;;;6.90;5.83;;;23.90;99.90;;;;;;5011264;28;20465;-69
2023/09/11 08:31:07;;;;;;;6.97;5.47;;;24.00;99.90;;;;;;5003590;28;20485;-68
2023/09/11 08:33:34;;;;;;;10.13;5.50;;;24.20;99.90;;;;;;5010634;28;20473;-68
2023/09/11 08:36:01;;;;;;;6.73;6.13;;;24.30;99.90;;;;;;5010208;28;20453;-69
2023/09/11 08:38:27;;;;;;;7.67;6.93;;;24.40;99.90;;;;;;5010883;28;20453;-69
2023/09/11 08:40:55;;;;;;;6.73;6.13;;;24.60;99.90;;;;;;5010911;28;20468;-68
2023/09/11 08:43:24;;;;;;;7.40;6.00;;;24.80;99.90;;;;;;5010512;28;20461;-69
2023/09/11 08:45:51;;;;;;;6.13;5.50;;;24.90;99.90;;;;;;5010715;28;20891;-69
2023/09/11 08:48:21;;;;;;;7.00;6.30;;;25.10;99.90;;;;;;5010743;28;20462;-68
2023/09/11 08:50:50;;;;;;;7.00;5.87;;;25.20;99.90;;;;;;5010778;28;20493;-69
2023/09/11 08:53:18;;;;;;;6.03;5.43;;;25.40;99.90;;;;;;5012153;28;20461;-69
2023/09/11 08:55:46;;;;;;;5.97;5.40;;;25.50;99.90;;;;;;5014757;28;20465;-68
2023/09/11 08:58:17;;;;;;;5.90;5.30;;;25.60;99.90;;;;;;5014722;28;20961;-69
2023/09/11 09:00:44;;;;;;;7.17;5.77;;;25.80;99.90;;;;;;5014539;28;20484;-68
2023/09/11 09:03:12;;;;;;;7.37;5.60;;;25.90;99.90;;;;;;5013981;28;20465;-69
2023/09/11 09:05:40;;;;;;;5.87;5.03;;;26.00;99.90;;;;;;5014566;28;20465;-69
2023/09/11 09:08:08;;;;;;;7.30;6.00;;;26.20;99.90;;;;;;5014352;28;20461;-69
2023/09/11 09:10:35;;;;;;;6.00;5.40;;;26.30;99.90;;;;;;5014541;28;20512;-68
2023/09/11 09:13:02;;;;;;;5.83;5.23;;;26.40;99.90;;;;;;5007169;28;20472;-69
2023/09/11 09:15:31;;;;;;;5.50;5.00;;;26.50;99.90;;;;;;5014312;28;20548;-68
2023/09/11 09:17:58;;;;;;;7.20;5.13;;;26.60;99.90;;;;;;5013800;28;20515;-69
2023/09/11 09:20:25;;;;;;;6.90;5.40;;;26.80;99.90;;;;;;5014161;28;20464;-68
2023/09/11 09:22:53;;;;;;;5.70;5.00;;;26.80;99.90;;;;;;5013344;28;20469;-68
2023/09/11 09:25:20;;;;;;;6.17;4.70;;;27.00;99.90;;;;;;5014021;28;20471;-69
2023/09/11 09:27:47;;;;;;;5.17;4.67;;;27.10;99.90;;;;;;5013611;28;20550;-68
2023/09/11 09:30:20;;;;;;;5.20;4.70;;;27.20;99.90;;;;;;5013752;28;20481;-69
2023/09/11 09:32:48;;;;;;;5.00;4.60;;;27.20;99.90;;;;;;5013295;28;20496;-68
2023/09/11 09:35:17;;;;;;;5.83;5.30;;;27.30;99.90;;;;;;5013791;28;20465;-69
2023/09/11 09:37:50;;;;;;;5.60;5.10;;;27.40;99.90;;;;;;5013720;28;20473;-69
2023/09/11 09:40:31;;;;;;;5.07;4.57;;;27.50;99.90;;;;;;5013406;28;20461;-68
2023/09/11 09:42:59;;;;;;;5.07;4.57;;;27.60;99.90;;;;;;5012636;28;20472;-69
2023/09/11 09:45:30;;;;;;;5.80;5.23;;;27.80;99.90;;;;;;5013763;28;20484;-69
2023/09/11 09:48:11;;;;;;;7.23;5.10;;;27.90;99.90;;;;;;5013358;28;21013;-68
2023/09/11 09:50:48;;;;;;;5.93;5.00;;;28.00;99.90;;;;;;5013522;28;20500;-68
2023/09/11 09:53:22;;;;;;;5.77;5.20;;;28.10;99.90;;;;;;5012831;28;20484;-68
2023/09/11 09:55:48;;;;;;;4.77;4.37;;;28.30;99.90;;;;;;5013487;28;20466;-68
2023/09/11 09:58:15;;;;;;;5.67;5.17;;;28.40;99.90;;;;;;5007306;28;20469;-68
2023/09/11 10:00:43;;;;;;;5.40;4.90;;;28.40;99.90;;;;;;5013452;28;20477;-68
2023/09/11 10:03:11;;;;;;;5.77;4.80;;;28.50;99.90;;;;;;5012042;28;20467;-68
2023/09/11 10:05:40;;;;;;;4.77;4.37;;;28.60;99.90;;;;;;5013413;28;20472;-69
2023/09/11 10:08:07;;;;;;;5.40;4.90;;;28.70;99.90;;;;;;5012978;28;20468;-69
2023/09/11 10:10:35;;;;;;;5.17;4.40;;;28.70;99.90;;;;;;5012984;28;21057;-68
2023/09/11 10:13:06;;;;;;;5.53;4.67;;;28.80;99.90;;;;;;5010165;28;20503;-69
2023/09/11 10:15:34;;;;;;;5.17;4.67;;;28.90;99.90;;;;;;5013208;28;20863;-69
2023/09/11 10:18:02;;;;;;;5.30;4.80;;;29.00;99.90;;;;;;5010702;28;20461;-66
2023/09/11 10:20:31;;;;;;;6.03;4.77;;;29.10;99.90;;;;;;5013022;28;20469;-69
2023/09/11 10:22:59;;;;;;;4.90;4.43;;;29.20;99.90;;;;;;5011896;28;20477;-68
2023/09/11 10:25:28;;;;;;;5.17;4.67;;;29.30;99.90;;;;;;5012776;28;20466;-69
2023/09/11 10:27:58;;;;;;;5.60;5.10;;;29.30;99.90;;;;;;5012606;28;20466;-69
2023/09/11 10:30:32;;;;;;;5.53;5.07;;;29.40;99.90;;;;;;5012661;28;20481;-69
2023/09/11 10:33:02;;;;;;;5.83;5.30;;;29.50;99.90;;;;;;5011725;28;20472;-68
2023/09/11 10:35:34;;;;;;;4.30;4.00;;;29.60;99.90;;;;;;5012991;28;20465;-68
2023/09/11 10:38:04;;;;;;;6.30;5.00;;;29.70;99.90;;;;;;5010206;28;20464;-68
2023/09/11 10:40:33;;;;;;;5.83;4.60;;;29.80;99.90;;;;;;5012567;28;20457;-69
2023/09/11 10:43:00;;;;;;;5.50;5.00;;;29.80;99.90;;;;;;5011766;28;20846;-68
2023/09/11 10:45:27;;;;;;;4.90;4.00;;;29.90;99.90;;;;;;5012626;28;20457;-69
2023/09/11 10:47:54;;;;;;;5.30;4.60;;;30.00;99.90;;;;;;5012370;28;20464;-68
2023/09/11 10:50:23;;;;;;;5.10;4.60;;;30.10;99.90;;;;;;5012261;28;20481;-68
2023/09/11 10:52:55;;;;;;;5.17;4.77;;;30.20;99.90;;;;;;5011928;28;20466;-68
2023/09/11 10:55:23;;;;;;;5.27;4.83;;;30.20;99.90;;;;;;5012241;28;20556;-68
2023/09/11 10:57:52;;;;;;;5.27;4.77;;;30.30;99.90;;;;;;5012194;28;20473;-68
2023/09/11 11:00:21;;;;;;;5.67;5.17;;;30.30;99.90;;;;;;5011950;28;20556;-68
2023/09/11 11:02:47;;;;;;;6.40;4.87;;;30.40;99.90;;;;;;5011685;28;20469;-68
2023/09/11 11:05:15;;;;;;;5.03;4.63;;;30.40;99.90;;;;;;5012035;28;20813;-68
2023/09/11 11:07:42;;;;;;;5.10;4.60;;;30.50;99.90;;;;;;5012088;28;20466;-68
2023/09/11 11:10:12;;;;;;;5.27;4.77;;;30.60;99.90;;;;;;5011605;28;20852;-68
2023/09/11 11:12:40;;;;;;;5.27;4.80;;;30.70;99.90;;;;;;5011528;28;20465;-68
2023/09/11 11:15:23;;;;;;;5.23;4.73;;;30.80;99.90;;;;;;5010910;28;20462;-68
2023/09/11 11:18:06;;;;;;;5.20;4.50;;;30.80;99.90;;;;;;5011750;28;20477;-68
2023/09/11 11:20:34;;;;;;;5.50;5.00;;;30.90;99.90;;;;;;5011722;28;20946;-68
2023/09/11 11:23:07;;;;;;;5.50;5.00;;;31.00;99.90;;;;;;5010960;28;20501;-68
2023/09/11 11:25:35;;;;;;;5.07;4.57;;;31.00;99.90;;;;;;5011736;28;20532;-68
2023/09/11 11:28:07;;;;;;;5.83;4.67;;;31.00;99.90;;;;;;5009214;28;20457;-68
2023/09/11 11:30:36;;;;;;;4.70;4.30;;;31.00;99.90;;;;;;5011906;28;20500;-68
2023/09/11 11:33:04;;;;;;;6.87;4.83;;;31.00;99.90;;;;;;5008190;28;20465;-68
2023/09/11 11:35:31;;;;;;;7.13;5.23;;;31.00;99.90;;;;;;5011803;28;20468;-68
2023/09/11 11:37:58;;;;;;;5.87;5.27;;;31.00;99.90;;;;;;5011888;28;20465;-68
2023/09/11 11:40:26;;;;;;;4.90;4.50;;;31.10;99.90;;;;;;5006965;28;20457;-67
2023/09/11 11:42:55;;;;;;;5.30;4.30;;;31.10;99.90;;;;;;5010963;28;20465;-67
2023/09/11 11:45:22;;;;;;;5.27;4.40;;;31.30;99.90;;;;;;5011333;28;20469;-68
2023/09/11 11:47:50;;;;;;;4.70;4.30;;;31.30;99.90;;;;;;5011687;28;20461;-68
2023/09/11 11:50:18;;;;;;;5.00;4.40;;;31.40;99.90;;;;;;5011131;28;20465;-68
2023/09/11 11:52:46;;;;;;;4.60;4.20;;;31.40;99.90;;;;;;5011004;28;20475;-68
2023/09/11 11:55:20;;;;;;;3.87;3.57;;;31.50;99.90;;;;;;5011278;28;20462;-68
2023/09/11 11:57:50;;;;;;;5.03;3.90;;;31.50;99.90;;;;;;5011548;28;20492;-68
2023/09/11 12:00:18;;;;;;;4.27;3.87;;;31.50;99.90;;;;;;5011317;28;20469;-69
2023/09/11 12:02:45;;;;;;;4.67;4.20;;;31.60;99.90;;;;;;5010833;28;20472;-68
2023/09/11 12:05:13;;;;;;;9.63;4.80;;;31.70;99.90;;;;;;5010985;28;20469;-68
2023/09/11 12:07:40;;;;;;;6.60;4.50;;;31.70;99.90;;;;;;5011412;28;20466;-68
2023/09/11 12:10:09;;;;;;;5.53;4.77;;;31.80;99.90;;;;;;5011282;28;20461;-68
2023/09/11 12:12:39;;;;;;;4.80;4.40;;;31.80;99.90;;;;;;5010649;28;20884;-68
2023/09/11 12:15:07;;;;;;;5.27;4.73;;;31.90;99.90;;;;;;5011034;28;20457;-68
2023/09/11 12:17:35;;;;;;;5.47;4.53;;;31.90;99.90;;;;;;5011268;28;20962;-68
2023/09/11 12:20:14;;;;;;;4.63;4.13;;;32.00;99.90;;;;;;5007847;28;20465;-68
2023/09/11 12:22:43;;;;;;;4.73;4.20;;;32.10;99.90;;;;;;5010526;28;20465;-68
2023/09/11 12:25:10;;;;;;;5.57;4.40;;;32.10;99.90;;;;;;5010874;28;20461;-68
2023/09/11 12:27:37;;;;;;;4.97;4.37;;;32.10;99.90;;;;;;5010975;28;20469;-68
2023/09/11 12:30:06;;;;;;;4.33;3.93;;;32.10;99.90;;;;;;5011009;28;20461;-67
2023/09/11 12:32:33;;;;;;;5.27;4.50;;;32.10;99.90;;;;;;5010357;28;20985;-68
2023/09/11 12:35:01;;;;;;;6.17;4.20;;;32.10;99.90;;;;;;5010998;28;20966;-68
2023/09/11 12:37:28;;;;;;;4.37;4.03;;;32.20;99.90;;;;;;5010835;28;20475;-68
2023/09/11 12:39:55;;;;;;;4.60;4.20;;;32.20;99.90;;;;;;5011294;28;21052;-68
2023/09/11 12:42:22;;;;;;;5.07;4.33;;;32.20;99.90;;;;;;5010165;28;20572;-68
2023/09/11 12:44:49;;;;;;;4.80;4.40;;;32.10;99.90;;;;;;5011120;28;20473;-68
2023/09/11 12:47:16;;;;;;;4.93;4.40;;;32.10;99.90;;;;;;5010765;28;20464;-68
2023/09/11 12:49:43;;;;;;;4.60;4.03;;;32.00;99.90;;;;;;5011149;28;20829;-68
2023/09/11 12:52:12;;;;;;;4.93;4.53;;;32.00;99.90;;;;;;5010167;28;20508;-68
2023/09/11 12:54:40;;;;;;;5.50;4.40;;;32.00;99.90;;;;;;5011025;28;20465;-68
2023/09/11 12:57:07;;;;;;;4.90;4.50;;;32.00;99.90;;;;;;5002555;28;20519;-68
2023/09/11 12:59:33;;;;;;;4.87;4.47;;;32.10;99.90;;;;;;5000423;28;20482;-68
2023/09/11 13:02:02;;;;;;;5.70;4.70;;;32.10;99.90;;;;;;5004316;28;20470;-68
2023/09/11 13:04:30;;;;;;;4.67;4.20;;;32.00;99.90;;;;;;5001099;28;20489;-68
2023/09/11 13:06:57;;;;;;;4.80;4.30;;;32.10;99.90;;;;;;5002703;28;20581;-68
2023/09/11 13:09:26;;;;;;;8.23;4.70;;;32.00;99.90;;;;;;5008836;28;20918;-68
2023/09/11 13:11:53;;;;;;;7.70;4.50;;;32.00;99.90;;;;;;4998511;28;20496;-68
2023/09/11 13:14:20;;;;;;;5.50;4.27;;;32.10;99.90;;;;;;5007293;28;20457;-68
2023/09/11 13:16:46;;;;;;;4.67;4.27;;;32.00;99.90;;;;;;5004435;28;20461;-68
2023/09/11 13:19:14;;;;;;;6.43;5.60;;;32.00;99.90;;;;;;5007138;28;20488;-68
2023/09/11 13:21:40;;;;;;;4.97;4.47;;;32.00;99.90;;;;;;4999716;28;20473;-67
2023/09/11 13:24:08;;;;;;;4.10;3.70;;;32.00;99.90;;;;;;5002321;28;20462;-68
2023/09/11 13:26:36;;;;;;;4.63;4.23;;;31.90;99.90;;;;;;5001795;28;20469;-68
2023/09/11 13:29:03;;;;;;;4.90;4.40;;;31.90;99.90;;;;;;5000980;28;20457;-68
2023/09/11 13:31:30;;;;;;;5.97;4.43;;;31.90;99.90;;;;;;5009286;28;20551;-68
2023/09/11 13:33:57;;;;;;;5.23;4.50;;;31.90;99.90;;;;;;5004918;28;20497;-68
2023/09/11 13:36:23;;;;;;;5.07;4.57;;;31.80;99.90;;;;;;5004706;28;20470;-68
2023/09/11 13:38:50;;;;;;;5.23;4.77;;;31.80;99.90;;;;;;5010680;28;20461;-68
2023/09/11 13:41:17;;;;;;;4.70;4.30;;;31.70;99.90;;;;;;5008295;28;21008;-68
2023/09/11 13:43:45;;;;;;;5.17;4.47;;;31.70;99.90;;;;;;5012811;28;20834;-68
2023/09/11 13:46:12;;;;;;;5.73;4.37;;;31.70;99.90;;;;;;5003809;28;21014;-68
2023/09/11 13:48:39;;;;;;;4.50;4.10;;;31.70;99.90;;;;;;5008291;28;21015;-68
2023/09/11 13:51:06;;;;;;;6.90;4.37;;;31.80;99.90;;;;;;5003886;28;20486;-68
2023/09/11 13:53:32;;;;;;;7.37;4.10;;;31.70;99.90;;;;;;5006979;28;20484;-68
2023/09/11 13:55:59;;;;;;;4.87;4.37;;;31.70;99.90;;;;;;5007917;28;20852;-68
2023/09/11 13:58:26;;;;;;;4.60;4.20;;;31.50;99.90;;;;;;5006311;28;20462;-68
2023/09/11 14:00:54;;;;;;;4.93;4.43;;;31.60;99.90;;;;;;5006615;28;20481;-68
2023/09/11 14:03:21;;;;;;;4.20;3.80;;;31.50;99.90;;;;;;5006897;28;20562;-68
2023/09/11 14:05:48;;;;;;;7.20;4.63;;;31.70;99.90;;;;;;5005099;28;20523;-68
2023/09/11 14:08:15;;;;;;;5.87;5.20;;;31.80;99.90;;;;;;4999543;28;20486;-68
2023/09/11 14:10:42;;;;;;;5.47;4.43;;;31.80;99.90;;;;;;5006842;28;20509;-68
2023/09/11 14:13:09;;;;;;;5.43;4.87;;;31.80;99.90;;;;;;4998557;28;20522;-68
2023/09/11 14:15:36;;;;;;;4.80;3.87;;;31.80;99.90;;;;;;5006516;28;20457;-68
2023/09/11 14:18:05;;;;;;;5.03;4.53;;;31.70;99.90;;;;;;5007660;28;20472;-68
2023/09/11 14:20:32;;;;;;;7.17;4.60;;;31.70;99.90;;;;;;5007600;28;20465;-68
2023/09/11 14:22:58;;;;;;;4.50;4.00;;;31.70;99.90;;;;;;5001539;28;20462;-68
2023/09/11 14:25:25;;;;;;;4.67;4.20;;;31.70;99.90;;;;;;5010126;28;20461;-68
2023/09/11 14:27:52;;;;;;;5.40;4.77;;;31.70;99.90;;;;;;5006839;28;20481;-68
2023/09/11 14:30:19;;;;;;;4.10;3.70;;;31.70;99.90;;;;;;5009735;28;20461;-68
2023/09/11 14:32:45;;;;;;;8.33;4.80;;;31.70;99.90;;;;;;5010399;28;20485;-68
2023/09/11 14:35:14;;;;;;;4.37;3.97;;;31.50;99.90;;;;;;5003541;28;20462;-68
2023/09/11 14:37:40;;;;;;;4.67;4.27;;;31.40;99.90;;;;;;5006924;28;20468;-68
2023/09/11 14:40:08;;;;;;;6.83;5.00;;;31.40;99.90;;;;;;5009364;28;20468;-68
2023/09/11 14:42:35;;;;;;;5.37;4.00;;;31.30;99.90;;;;;;5000301;28;20474;-68
2023/09/11 14:45:01;;;;;;;7.03;4.97;;;31.20;99.90;;;;;;5000298;28;20458;-68
2023/09/11 14:47:28;;;;;;;4.77;4.20;;;31.20;99.90;;;;;;5010081;28;20981;-68
2023/09/11 14:49:55;;;;;;;4.83;4.40;;;31.20;99.90;;;;;;5003210;28;20461;-68
2023/09/11 14:52:23;;;;;;;6.23;5.40;;;31.30;99.90;;;;;;4996628;28;20866;-68
2023/09/11 14:54:50;;;;;;;7.17;5.13;;;31.30;99.90;;;;;;5009948;28;20458;-68
2023/09/11 14:57:18;;;;;;;5.80;5.20;;;31.20;99.90;;;;;;4997286;28;20458;-68
2023/09/11 14:59:44;;;;;;;5.10;4.60;;;31.10;99.90;;;;;;5007955;28;20457;-68
2023/09/11 15:02:11;;;;;;;4.93;4.53;;;31.10;99.90;;;;;;5001969;28;20836;-67
2023/09/11 15:04:38;;;;;;;10.60;4.60;;;31.10;99.90;;;;;;4999708;28;20461;-67
2023/09/11 15:07:05;;;;;;;5.70;4.73;;;31.00;99.90;;;;;;5004485;28;20453;-69
2023/09/11 15:09:33;;;;;;;5.75;4.60;;;31.00;99.90;;;;;;5000658;28;20451;-68
2023/09/11 15:12:00;;;;;;;5.77;4.63;;;31.00;99.90;;;;;;5005130;28;20240;-68
2023/09/11 15:14:27;;;;;;;6.37;4.40;;;30.90;99.90;;;;;;5000651;28;20525;-67
2023/09/11 15:16:53;;;;;;;4.73;4.33;;;30.90;99.90;;;;;;5002805;28;20907;-66
2023/09/11 15:19:20;;;;;;;5.17;4.50;;;30.90;99.90;;;;;;5000674;28;21029;-66
2023/09/11 15:21:47;;;;;;;4.93;4.50;;;30.90;99.90;;;;;;5002522;28;20496;-67
2023/09/11 15:24:13;;;;;;;4.80;4.40;;;30.80;99.90;;;;;;4997485;28;20832;-68
2023/09/11 15:26:42;;;;;;;4.70;4.20;;;30.60;99.90;;;;;;4997463;28;20608;-73
2023/09/11 15:29:08;;;;;;;4.70;4.30;;;30.50;99.90;;;;;;5002495;28;20524;-68
2023/09/11 15:31:35;;;;;;;5.63;4.00;;;30.40;99.90;;;;;;5003195;28;20998;-67
2023/09/11 15:34:03;;;;;;;4.50;4.10;;;30.40;99.90;;;;;;4999044;28;20461;-67
2023/09/11 15:36:30;;;;;;;8.83;4.07;;;30.30;99.90;;;;;;4998613;28;20520;-67
2023/09/11 15:38:56;;;;;;;6.23;4.27;;;30.30;99.90;;;;;;5011208;28;20469;-67
2023/09/11 15:41:23;;;;;;;4.77;4.27;;;30.20;99.90;;;;;;5002795;28;20505;-67
2023/09/11 15:43:51;;;;;;;5.23;4.20;;;30.20;99.90;;;;;;5002340;28;20460;-67
2023/09/11 15:46:18;;;;;;;4.87;4.03;;;30.20;99.90;;;;;;5004636;28;20469;-68
2023/09/11 15:48:44;;;;;;;5.53;4.07;;;30.20;99.90;;;;;;5003938;28;20969;-67
2023/09/11 15:51:11;;;;;;;4.83;4.30;;;30.10;99.90;;;;;;5008141;28;20486;-67
2023/09/11 15:53:38;;;;;;;4.40;3.80;;;30.10;99.90;;;;;;4998454;28;20500;-67
2023/09/11 15:56:06;;;;;;;4.80;4.37;;;30.00;99.90;;;;;;5004280;28;20466;-67
2023/09/11 15:58:33;;;;;;;7.30;4.20;;;29.80;99.90;;;;;;5003610;28;20466;-67
2023/09/11 16:01:01;;;;;;;4.83;4.00;;;29.80;99.90;;;;;;5006758;28;20573;-68
2023/09/11 16:03:32;;;;;;;4.70;4.27;;;29.80;99.90;;;;;;4992550;28;20458;-68
2023/09/11 16:05:59;;;;;;;4.83;4.33;;;29.70;99.90;;;;;;4999590;28;20470;-68
2023/09/11 16:08:26;;;;;;;4.27;3.87;;;29.60;99.90;;;;;;5009059;28;20564;-68
2023/09/11 16:10:53;;;;;;;7.73;4.63;;;29.50;99.90;;;;;;5010550;28;20535;-68
2023/09/11 16:13:20;;;;;;;8.53;4.57;;;29.50;99.90;;;;;;5010289;28;20481;-68
2023/09/11 16:15:46;;;;;;;5.53;4.57;;;29.40;99.90;;;;;;5010093;28;20474;-68
2023/09/11 16:18:14;;;;;;;5.10;4.20;;;29.20;99.90;;;;;;5011035;28;20501;-67